Latest Coastal Weather Observations for Darwin Harbour

IDD60701

Issued at 2:01 am CST Monday 22 December 2014 (issued every 10 minutes, with the page automatically refreshed every 10 minutes)

About coastal observations | Map of coastal stations | Coastal observations for NT | Marine services | Other Formats
Station Details ID: 014072 Name: DARWIN NTC AWS Lat: -12.47 Lon: 130.85 Height: 0.0 m
Data from the previous 72 hours. | See also: Recent months for locations in Northern Territory
Date/Time
CST
Temp

°C
Wind Pressure Rain
since 9am
mm
Weather Cloud Vis
km
Sea
Height
m
Swell
Dir
 
Speed
knots
Gust
knots
hPa Trend Height
m
Period
s
Dir
22/02:00am - WNW 4 6 1006.4 - - - - - - - - -
22/01:30am - W 5 8 1006.6 - - - - - - - - -
22/01:00am - W 6 9 1006.7 - - - - - - - - -
22/12:30am - W 4 7 1006.9 - - - - - - - - -
22/12:00am - WNW 7 9 1007.1 - - - - - - - - -
 
Date/Time
CST
Temp

°C
Wind Pressure Rain
since 9am
mm
Weather Cloud Vis
km
Sea
Height
m
Swell
Dir
 
Speed
knots
Gust
knots
hPa Trend Height
m
Period
s
Dir
21/11:30pm - W 7 10 1007.4 - - - - - - - - -
21/11:00pm - WNW 5 7 1007.1 - - - - - - - - -
21/10:30pm - WNW 5 8 1006.9 - - - - - - - - -
21/10:00pm - WNW 6 9 1007.0 - - - - - - - - -
21/09:30pm - NW 6 12 1006.8 - - - - - - - - -
21/09:00pm - NW 5 10 1006.2 - - - - - - - - -
21/08:30pm - NNW 5 7 1006.0 - - - - - - - - -
21/08:00pm - NNW 2 4 1005.5 - - - - - - - - -
21/07:30pm - NW 2 3 1005.1 - - - - - - - - -
21/07:00pm - WNW 3 4 1004.7 - - - - - - - - -
21/06:30pm - WNW 4 6 1004.1 - - - - - - - - -
21/06:00pm - W 4 5 1003.9 - - - - - - - - -
21/05:30pm - W 4 7 1003.9 - - - - - - - - -
21/05:00pm - WNW 6 8 1004.0 - - - - - - - - -
21/04:30pm - WNW 5 8 1004.2 - - - - - - - - -
21/04:00pm - WNW 7 10 1004.4 - - - - - - - - -
21/03:30pm - WNW 6 9 1004.7 - - - - - - - - -
21/03:00pm - W 5 7 1005.2 - - - - - - - - -
21/02:30pm - WSW 5 6 1005.7 - - - - - - - - -
21/02:00pm - WSW 4 6 1006.0 - - - - - - - - -
21/01:30pm - W 5 7 1006.6 - - - - - - - - -
21/01:00pm - W 5 8 1007.2 - - - - - - - - -
21/12:30pm - S 1 3 1007.4 - - - - - - - - -
21/12:00pm - SSE 5 7 1007.8 - - - - - - - - -
21/11:30am - SE 9 11 1008.4 - - - - - - - - -
21/11:00am - ESE 10 12 1008.9 - - - - - - - - -
21/10:30am - ESE 9 11 1009.2 - - - - - - - - -
21/10:00am - ESE 6 9 1009.2 - - - - - - - - -
21/09:30am - ESE 9 11 1009.1 - - - - - - - - -
21/09:00am - SE 11 15 1009.2 - - - - - - - - -
21/08:30am - SE 10 13 1009.0 - - - - - - - - -
21/08:00am - SE 8 10 1008.3 - - - - - - - - -
21/07:30am - SSW 1 3 1007.7 - - - - - - - - -
21/07:00am - WSW 3 4 1007.3 - - - - - - - - -
21/06:30am - WSW 4 5 1007.1 - - - - - - - - -
21/06:00am - WNW 2 3 1006.8 - - - - - - - - -
21/05:30am - W 3 4 1006.6 - - - - - - - - -
21/05:00am - WSW 3 4 1006.3 - - - - - - - - -
21/04:30am - WSW 4 6 1006.0 - - - - - - - - -
21/04:00am - WSW 5 6 1005.8 - - - - - - - - -
21/03:30am - WSW 4 6 1005.9 - - - - - - - - -
21/03:00am - WSW 5 6 1005.8 - - - - - - - - -
21/02:30am - WSW 5 8 1006.1 - - - - - - - - -
21/02:00am - WNW 5 7 1006.2 - - - - - - - - -
21/01:30am - WNW 4 7 1006.9 - - - - - - - - -
21/01:00am - NW 5 9 1007.3 - - - - - - - - -
21/12:30am - WNW 10 17 1008.0 - - - - - - - - -
21/12:00am - WSW 5 7 1008.0 - - - - - - - - -
 
Date/Time
CST
Temp

°C
Wind Pressure Rain
since 9am
mm
Weather Cloud Vis
km
Sea
Height
m
Swell
Dir
 
Speed
knots
Gust
knots
hPa Trend Height
m
Period
s
Dir
20/11:30pm - SW 7 9 1008.0 - - - - - - - - -
20/11:00pm - W 7 9 1008.0 - - - - - - - - -
20/10:30pm - WNW 6 9 1007.7 - - - - - - - - -
20/10:00pm - NW 4 7 1007.3 - - - - - - - - -
20/09:30pm - NW 2 5 1007.1 - - - - - - - - -
20/09:00pm - NNW 5 9 1006.7 - - - - - - - - -
20/08:30pm - NNW 3 6 1006.1 - - - - - - - - -
20/08:00pm - N 3 7 1005.7 - - - - - - - - -
20/07:30pm - NNW 4 7 1005.2 - - - - - - - - -
20/07:00pm - NNW 6 11 1004.7 - - - - - - - - -
20/06:30pm - NNW 5 9 1004.5 - - - - - - - - -
20/06:00pm - NW 5 9 1004.3 - - - - - - - - -
20/05:30pm - NNW 6 10 1003.9 - - - - - - - - -
20/05:00pm - NNW 6 10 1004.0 - - - - - - - - -
20/04:30pm - WNW 7 11 1004.0 - - - - - - - - -
20/04:00pm - NW 5 9 1004.1 - - - - - - - - -
20/03:30pm - WNW 6 9 1004.5 - - - - - - - - -
20/03:00pm - WNW 6 10 1005.0 - - - - - - - - -
20/02:30pm - W 6 9 1005.5 - - - - - - - - -
20/02:00pm - W 4 6 1005.9 - - - - - - - - -
20/01:30pm - SE 2 3 1006.3 - - - - - - - - -
20/01:00pm - SE 2 3 1006.9 - - - - - - - - -
20/12:30pm - ESE 2 3 1007.5 - - - - - - - - -
20/12:00pm - S 1 3 1008.0 - - - - - - - - -
20/11:30am - ESE 1 3 1008.5 - - - - - - - - -
20/11:00am - ESE 4 6 1008.9 - - - - - - - - -
20/10:30am - ESE 5 7 1009.2 - - - - - - - - -
20/10:00am - SSE 3 6 1009.4 - - - - - - - - -
20/09:30am - SSE 4 6 1009.5 - - - - - - - - -
20/09:00am - SSE 5 9 1009.6 - - - - - - - - -
20/08:30am - W 2 5 1009.8 - - - - - - - - -
20/08:00am - SW 6 8 1009.5 - - - - - - - - -
20/07:30am - SW 7 11 1009.2 - - - - - - - - -
20/07:00am - WSW 7 10 1009.1 - - - - - - - - -
20/06:30am - WSW 8 11 1009.2 - - - - - - - - -
20/06:00am - SW 6 9 1008.9 - - - - - - - - -
20/05:30am - W 9 15 1009.6 - - - - - - - - -
20/05:22am - WSW 10 15 1009.2 - - - - - - - - -
20/05:00am - SW 13 19 1007.2 - - - - - - - - -
20/04:30am - WSW 8 11 1006.9 - - - - - - - - -
20/04:00am - W 9 11 1007.3 - - - - - - - - -
20/03:30am - W 6 9 1007.2 - - - - - - - - -
20/03:00am - WNW 7 9 1007.6 - - - - - - - - -
20/02:30am - WNW 5 9 1007.4 - - - - - - - - -
20/02:00am - WNW 6 9 1007.5 - - - - - - - - -
20/01:30am - WNW 5 9 1007.3 - - - - - - - - -
20/01:00am - W 3 5 1007.8 - - - - - - - - -
20/12:30am - CALM 0 1 1009.3 - - - - - - - - -
20/12:00am - W 1 3 1009.6 - - - - - - - - -
 
Date/Time
CST
Temp

°C
Wind Pressure Rain
since 9am
mm
Weather Cloud Vis
km
Sea
Height
m
Swell
Dir
 
Speed
knots
Gust
knots
hPa Trend Height
m
Period
s
Dir
19/11:30pm - W 1 2 1009.2 - - - - - - - - -
19/11:00pm - WSW 2 3 1009.7 - - - - - - - - -
19/10:30pm - SW 2 3 1009.7 - - - - - - - - -
19/10:00pm - WSW 3 5 1009.0 - - - - - - - - -
19/09:30pm - WSW 3 4 1008.5 - - - - - - - - -
19/09:00pm - WSW 3 5 1008.1 - - - - - - - - -
19/08:30pm - W 5 7 1007.8 - - - - - - - - -
19/08:00pm - W 4 7 1007.3 - - - - - - - - -
19/07:30pm - WNW 3 5 1007.0 - - - - - - - - -
19/07:00pm - SW 11 15 1006.8 - - - - - - - - -
19/06:30pm - WSW 10 13 1007.0 - - - - - - - - -
19/06:00pm - WNW 7 12 1006.0 - - - - - - - - -
19/05:30pm - WNW 8 13 1005.9 - - - - - - - - -
19/05:00pm - WNW 8 13 1005.4 - - - - - - - - -
19/04:30pm - WNW 9 14 1005.6 - - - - - - - - -
19/04:00pm - WNW 8 15 1005.6 - - - - - - - - -
19/03:30pm - NW 8 14 1005.7 - - - - - - - - -
19/03:00pm - NW 6 11 1006.4 - - - - - - - - -
19/02:30pm - NW 8 13 1006.9 - - - - - - - - -
19/02:00pm - WNW 8 13 1007.5 - - - - - - - - -
19/01:30pm - WNW 7 11 1007.9 - - - - - - - - -
19/01:00pm - W 6 9 1008.4 - - - - - - - - -
19/12:30pm - W 4 5 1009.0 - - - - - - - - -
19/12:00pm - ESE 2 4 1009.3 - - - - - - - - -
19/11:30am - SE 3 5 1009.4 - - - - - - - - -
19/11:00am - SW 2 4 1009.9 - - - - - - - - -
19/10:30am - WSW 3 5 1010.0 - - - - - - - - -
19/10:00am - WSW 3 5 1010.1 - - - - - - - - -
19/09:30am - WSW 5 7 1010.3 - - - - - - - - -
19/09:00am - WSW 6 9 1010.0 - - - - - - - - -
19/08:30am - WSW 7 10 1009.9 - - - - - - - - -
19/08:00am - WNW 6 7 1009.5 - - - - - - - - -
19/07:30am - WNW 6 7 1009.4 - - - - - - - - -
19/07:00am - WNW 4 6 1009.2 - - - - - - - - -
19/06:30am - W 5 7 1008.6 - - - - - - - - -
19/06:00am - W 5 7 1008.2 - - - - - - - - -
19/05:30am - WNW 4 7 1007.9 - - - - - - - - -
19/05:00am - W 5 8 1007.7 - - - - - - - - -
19/04:30am - W 6 10 1007.7 - - - - - - - - -
19/04:00am - W 4 8 1007.5 - - - - - - - - -
19/03:30am - WNW 4 8 1007.5 - - - - - - - - -
19/03:00am - WNW 3 7 1007.7 - - - - - - - - -
19/02:30am - W 7 9 1008.0 - - - - - - - - -

Other Formats:

Comma delimited format used in spreadsheet applications
http://www.bom.gov.au/fwo/IDD60701/IDD60701.95122.axf

JavaScript Object Notation format (JSON) in row-major order
http://www.bom.gov.au/fwo/IDD60701/IDD60701.95122.json